createdAt,value
2022-10-08T04:03:20.251Z,16.96
2022-10-08T04:07:22.827Z,16.90
2022-10-08T04:11:25.390Z,16.95
2022-10-08T04:15:27.997Z,16.95
2022-10-08T04:19:31.983Z,17.16
2022-10-08T04:23:36.598Z,17.13
2022-10-08T04:27:39.159Z,16.78
2022-10-08T04:31:41.773Z,16.44
2022-10-08T04:35:45.741Z,16.38
2022-10-08T04:39:48.306Z,16.31
2022-10-08T04:43:51.741Z,16.26
2022-10-08T04:47:54.185Z,16.35
2022-10-08T04:51:58.146Z,16.27
2022-10-08T04:56:09.835Z,16.28
2022-10-08T05:00:18.066Z,16.31
2022-10-08T05:04:21.461Z,16.45
2022-10-08T05:08:25.414Z,16.20
2022-10-08T05:12:28.003Z,16.14
2022-10-08T05:16:30.642Z,16.48
2022-10-08T05:20:33.202Z,16.74
2022-10-08T05:24:37.098Z,17.21
2022-10-08T05:28:39.714Z,16.98
2022-10-08T05:32:42.298Z,16.91
2022-10-08T05:36:44.888Z,16.98
2022-10-08T05:40:48.800Z,16.95
2022-10-08T05:44:51.377Z,16.84
2022-10-08T05:48:54.648Z,16.69
2022-10-08T05:52:57.210Z,17.08
2022-10-08T05:57:01.092Z,17.57
2022-10-08T06:01:06.629Z,17.96
2022-10-08T06:05:09.644Z,18.03
2022-10-08T06:09:15.323Z,18.36
2022-10-08T06:13:19.305Z,18.53
2022-10-08T06:17:22.492Z,18.58
2022-10-08T06:21:27.645Z,18.63
2022-10-08T06:25:30.227Z,18.64
2022-10-08T06:29:34.115Z,18.67
2022-10-08T06:33:37.026Z,18.61
2022-10-08T06:37:40.535Z,18.36
2022-10-08T06:41:43.122Z,18.78
2022-10-08T06:45:48.044Z,19.08
2022-10-08T06:49:50.628Z,19.32
2022-10-08T06:53:55.005Z,19.55
2022-10-08T06:57:57.583Z,19.71
2022-10-08T07:02:01.629Z,19.67
2022-10-08T07:06:07.231Z,19.87
2022-10-08T07:10:10.904Z,19.84
2022-10-08T07:14:13.581Z,20.04
2022-10-08T07:18:17.515Z,20.36
2022-10-08T07:22:20.099Z,20.32
2022-10-08T07:26:24.738Z,20.08
2022-10-08T07:30:27.319Z,20.29
2022-10-08T07:34:31.343Z,20.25
2022-10-08T07:38:33.947Z,19.96
2022-10-08T07:42:36.527Z,19.78
2022-10-08T07:46:44.460Z,20.30
2022-10-08T07:50:48.389Z,20.71
2022-10-08T07:54:50.948Z,20.81
2022-10-08T07:58:53.842Z,21.08
2022-10-08T08:02:56.404Z,21.25
2022-10-08T08:07:00.310Z,21.57
2022-10-08T08:11:05.407Z,22.26
2022-10-08T08:15:08.973Z,22.79
2022-10-08T08:19:11.391Z,23.23
2022-10-08T08:23:15.307Z,23.45
2022-10-08T08:27:18.659Z,23.53
2022-10-08T08:31:24.554Z,23.23
2022-10-08T08:35:27.199Z,23.29
2022-10-08T08:39:31.807Z,23.67
2022-10-08T08:43:34.775Z,24.05
2022-10-08T08:47:41.226Z,23.71
2022-10-08T08:51:43.844Z,23.44
2022-10-08T08:55:50.011Z,24.05
2022-10-08T08:59:57.712Z,23.90
2022-10-08T09:04:06.447Z,23.83
2022-10-08T09:08:15.269Z,24.15
2022-10-08T09:12:21.416Z,24.18
2022-10-08T09:16:24.718Z,24.14
2022-10-08T09:20:27.401Z,24.35
2022-10-08T09:24:30.229Z,24.14
2022-10-08T09:28:42.973Z,24.01
2022-10-08T09:32:45.938Z,24.15
2022-10-08T09:36:51.587Z,24.13
2022-10-08T09:41:01.991Z,23.29
2022-10-08T09:45:34.115Z,23.77
2022-10-08T09:49:38.351Z,23.91
2022-10-08T09:53:44.402Z,24.30
2022-10-08T09:57:50.435Z,24.05
2022-10-08T10:01:54.774Z,23.95
2022-10-08T10:05:59.033Z,24.02
2022-10-08T10:10:03.618Z,24.71
2022-10-08T10:14:14.082Z,24.66
2022-10-08T10:18:22.079Z,24.24
2022-10-08T10:22:31.173Z,24.01
2022-10-08T10:26:38.123Z,24.50
2022-10-08T10:30:50.419Z,24.31
2022-10-08T10:35:03.766Z,24.73
2022-10-08T10:39:18.778Z,24.92
2022-10-08T10:43:41.756Z,25.18
2022-10-08T10:47:44.330Z,24.88
2022-10-08T10:52:01.154Z,25.13
2022-10-08T10:56:13.171Z,25.67
2022-10-08T11:00:21.761Z,25.40
2022-10-08T11:04:35.162Z,25.22
2022-10-08T11:08:43.563Z,25.30
2022-10-08T11:12:57.579Z,24.20
2022-10-08T11:17:09.220Z,23.82
2022-10-08T11:21:27.110Z,24.49
2022-10-08T11:25:55.713Z,24.99
2022-10-08T11:30:06.376Z,24.28
2022-10-08T11:34:20.949Z,24.75
2022-10-08T11:38:30.321Z,24.23
2022-10-08T11:42:47.518Z,24.23
2022-10-08T11:46:51.105Z,24.57
2022-10-08T11:50:53.654Z,24.26
2022-10-08T11:54:57.654Z,24.02
2022-10-08T11:59:08.428Z,23.93
2022-10-08T12:03:28.095Z,25.43
2022-10-08T12:07:33.796Z,24.50
2022-10-08T12:11:53.897Z,24.62
2022-10-08T12:16:04.545Z,24.51
2022-10-08T12:20:20.764Z,24.01
2022-10-08T12:24:56.275Z,23.41
2022-10-08T12:28:59.462Z,24.26
2022-10-08T12:33:03.625Z,24.11
2022-10-08T12:37:16.719Z,24.19
2022-10-08T12:41:23.946Z,24.29
2022-10-08T12:45:31.362Z,24.37
2022-10-08T12:49:39.793Z,24.47
2022-10-08T12:53:45.696Z,25.14
2022-10-08T12:57:50.875Z,24.96
2022-10-08T13:01:55.210Z,24.46
2022-10-08T13:05:59.184Z,24.60
2022-10-08T13:10:17.211Z,25.56
2022-10-08T13:14:24.990Z,26.04
2022-10-08T13:18:29.927Z,26.14
2022-10-08T13:22:33.978Z,25.94
2022-10-08T13:26:42.100Z,26.05
2022-10-08T13:30:46.532Z,26.58
2022-10-08T13:34:51.136Z,25.96
2022-10-08T13:38:55.114Z,26.74
2022-10-08T13:42:59.271Z,26.95
2022-10-08T13:47:03.881Z,26.94
2022-10-08T13:51:07.110Z,27.71
2022-10-08T13:55:23.031Z,26.77
2022-10-08T13:59:30.421Z,26.82
2022-10-08T14:03:33.375Z,26.77
2022-10-08T14:07:36.971Z,26.46
2022-10-08T14:11:43.014Z,26.93
2022-10-08T14:15:45.620Z,26.04
2022-10-08T14:19:48.879Z,26.18
2022-10-08T14:23:51.610Z,25.84
2022-10-08T14:27:55.546Z,25.89
2022-10-08T14:31:58.248Z,25.50
2022-10-08T14:36:00.891Z,25.89
2022-10-08T14:40:04.130Z,24.84
2022-10-08T14:44:07.897Z,25.22
2022-10-08T14:48:11.151Z,24.67
2022-10-08T14:52:13.748Z,24.02
2022-10-08T14:56:16.330Z,23.72
2022-10-08T15:00:20.550Z,24.54
2022-10-08T15:04:23.150Z,24.36
2022-10-08T15:08:25.756Z,24.01
2022-10-08T15:12:28.356Z,24.04
2022-10-08T15:16:32.336Z,24.00
2022-10-08T15:20:35.239Z,23.70
2022-10-08T15:24:37.815Z,24.43
2022-10-08T15:28:40.515Z,24.76
2022-10-08T15:32:44.567Z,24.76
2022-10-08T15:36:48.028Z,24.49
2022-10-08T15:40:50.631Z,24.86
2022-10-08T15:44:53.645Z,25.01
2022-10-08T15:48:58.042Z,25.00
2022-10-08T15:53:00.807Z,25.25
2022-10-08T15:57:03.493Z,25.03
2022-10-08T16:01:07.809Z,24.99
2022-10-08T16:05:11.780Z,24.76
2022-10-08T16:09:15.369Z,24.14
2022-10-08T16:13:18.036Z,24.03
2022-10-08T16:17:20.650Z,23.91
2022-10-08T16:21:25.349Z,24.02
2022-10-08T16:25:27.950Z,24.02
2022-10-08T16:29:30.708Z,24.26
2022-10-08T16:33:33.427Z,24.34
2022-10-08T16:37:37.374Z,24.34
2022-10-08T16:41:40.327Z,24.13
2022-10-08T16:45:42.954Z,23.79
2022-10-08T16:49:45.545Z,22.45
2022-10-08T16:53:50.164Z,20.34
2022-10-08T16:57:52.769Z,20.23
2022-10-08T17:01:57.469Z,20.76
2022-10-08T17:06:00.248Z,20.58
2022-10-08T17:10:04.728Z,20.89
2022-10-08T17:14:08.231Z,21.05
2022-10-08T17:18:10.790Z,21.16
2022-10-08T17:22:16.227Z,21.19
2022-10-08T17:26:22.047Z,21.46
2022-10-08T17:30:24.622Z,21.41
2022-10-08T17:34:27.240Z,21.47
2022-10-08T17:38:30.233Z,21.36
2022-10-08T17:42:34.183Z,21.21
2022-10-08T17:46:40.440Z,21.03
2022-10-08T17:50:43.283Z,20.55
2022-10-08T17:54:45.850Z,20.10
2022-10-08T17:58:49.819Z,20.04
2022-10-08T18:02:52.927Z,20.20
2022-10-08T18:06:58.660Z,19.98
2022-10-08T18:11:07.523Z,19.95
2022-10-08T18:15:11.895Z,19.67
2022-10-08T18:19:14.483Z,19.62
2022-10-08T18:23:17.067Z,19.32
2022-10-08T18:27:19.642Z,19.18
2022-10-08T18:31:25.695Z,19.33
2022-10-08T18:35:28.518Z,19.13
2022-10-08T18:39:31.104Z,19.06
2022-10-08T18:43:36.040Z,18.93
2022-10-08T18:47:39.993Z,18.86
2022-10-08T18:51:42.883Z,18.72
2022-10-08T18:55:49.631Z,18.80
2022-10-08T18:59:52.250Z,18.37
2022-10-08T19:03:58.026Z,18.56
2022-10-08T19:08:00.613Z,18.70
2022-10-08T19:12:03.234Z,18.62
2022-10-08T19:16:08.006Z,18.44
2022-10-08T19:20:12.136Z,18.40
2022-10-08T19:24:17.535Z,18.31
2022-10-08T19:28:20.232Z,18.18
2022-10-08T19:32:22.836Z,18.10
2022-10-08T19:36:28.716Z,18.00
2022-10-08T19:40:31.295Z,17.77
2022-10-08T19:44:33.884Z,17.71
2022-10-08T19:48:36.683Z,17.57
2022-10-08T19:52:40.599Z,17.58
2022-10-08T19:56:43.932Z,17.70
2022-10-08T20:00:46.576Z,17.60
2022-10-08T20:04:49.166Z,17.23
2022-10-08T20:08:53.763Z,17.36
2022-10-08T20:12:56.407Z,17.00
2022-10-08T20:16:59.024Z,16.79
2022-10-08T20:21:02.668Z,17.09
2022-10-08T20:25:07.051Z,17.22
2022-10-08T20:29:11.494Z,17.00
2022-10-08T20:33:14.057Z,16.99
2022-10-08T20:37:16.637Z,16.86
2022-10-08T20:41:21.522Z,16.78
2022-10-08T20:45:25.347Z,16.77
2022-10-08T20:49:30.547Z,17.07
2022-10-08T20:53:33.493Z,17.19
2022-10-08T20:57:37.402Z,17.23
